DLH469 KAUS-EDDF
Flight info
| Callsign | DLH469 |
|---|---|
| Flight time | N/A |
| Altitude | 37000 |
| Route | ILEXY4 ZENZI DCT KF15G DCT KM24I DCT KM33K DCT KI48O/N0484F390 DCT KC69U DCT SYR DCT CABCI DCT MIILS N691A NEEKO/M084F400 NATU BEXET/N0488F410 DCT ERABI DCT ENJEX DCT ADHAV DCT AGCAT DCT AXNEF DCT ZIPWE DCT OZZIL DCT SAWPE Q63 CPT UL9 BIG L607 KONAN DCT KOK UL607 SPI T180 NIVNU/N0376F230 T847 IMCOM IMCOM1A |
| Aircraft | B789/H-SADFGHIJ1J2J3J4J5LOP1P2RWXYZ/LB1D1 |
Departure
| Time | N/A |
|---|---|
| Airport | Austin Bergstrom International Airport (KAUS) |
Arrival
| Time | 2026-04-17 06:25 |
|---|---|
| Airport | Frankfurt Main Airport (EDDF) |
| Time | Latitude | Longitude | Altitude | Speed | Heading |
|---|---|---|---|---|---|
| 2026-04-17 06:14 | 50.23666 | 8.79741 | 10600 ft | 254 kts | 38° |
| 2026-04-17 06:15 | 50.24995 | 8.81494 | 10482 ft | 250 kts | 38° |
| 2026-04-17 06:15 | 50.26369 | 8.83268 | 10244 ft | 252 kts | 37° |
| 2026-04-17 06:15 | 50.27607 | 8.85128 | 10131 ft | 250 kts | 57° |
| 2026-04-17 06:15 | 50.28281 | 8.87689 | 9917 ft | 258 kts | 69° |
| 2026-04-17 06:16 | 50.28906 | 8.90311 | 9586 ft | 256 kts | 69° |
| 2026-04-17 06:16 | 50.29337 | 8.92985 | 9228 ft | 255 kts | 92° |
| 2026-04-17 06:16 | 50.28908 | 8.95645 | 8899 ft | 253 kts | 121° |
| 2026-04-17 06:16 | 50.27754 | 8.97577 | 8594 ft | 249 kts | 149° |
| 2026-04-17 06:17 | 50.26177 | 8.98609 | 8269 ft | 246 kts | 162° |
| 2026-04-17 06:17 | 50.24597 | 8.99509 | 7957 ft | 244 kts | 161° |
| 2026-04-17 06:17 | 50.23008 | 9.00402 | 7632 ft | 241 kts | 161° |
| 2026-04-17 06:17 | 50.21437 | 9.01288 | 7298 ft | 240 kts | 161° |
| 2026-04-17 06:18 | 50.19830 | 9.01944 | 6805 ft | 236 kts | 181° |
| 2026-04-17 06:18 | 50.18283 | 9.01396 | 6473 ft | 224 kts | 207° |
| 2026-04-17 06:18 | 50.17058 | 8.99990 | 6160 ft | 215 kts | 220° |
| 2026-04-17 06:18 | 50.15936 | 8.98518 | 5886 ft | 207 kts | 220° |
| 2026-04-17 06:19 | 50.14848 | 8.97085 | 5610 ft | 202 kts | 220° |
| 2026-04-17 06:19 | 50.13774 | 8.95682 | 5345 ft | 201 kts | 220° |
| 2026-04-17 06:19 | 50.12750 | 8.94227 | 5100 ft | 198 kts | 230° |
| 2026-04-17 06:19 | 50.12077 | 8.92401 | 4894 ft | 192 kts | 245° |
| 2026-04-17 06:20 | 50.11585 | 8.90480 | 4634 ft | 190 kts | 248° |
| 2026-04-17 06:20 | 50.11122 | 8.88560 | 4372 ft | 189 kts | 248° |
| 2026-04-17 06:20 | 50.10667 | 8.86645 | 4126 ft | 188 kts | 248° |
| 2026-04-17 06:20 | 50.10212 | 8.84736 | 3871 ft | 188 kts | 248° |
| 2026-04-17 06:21 | 50.09759 | 8.82833 | 3618 ft | 186 kts | 248° |
| 2026-04-17 06:21 | 50.09312 | 8.80956 | 3395 ft | 183 kts | 248° |
| 2026-04-17 06:21 | 50.08889 | 8.79171 | 3143 ft | 172 kts | 248° |
| 2026-04-17 06:21 | 50.08499 | 8.77525 | 2921 ft | 152 kts | 248° |
| 2026-04-17 06:22 | 50.08141 | 8.76017 | 2724 ft | 144 kts | 248° |
| 2026-04-17 06:22 | 50.07796 | 8.74565 | 2530 ft | 142 kts | 248° |
| 2026-04-17 06:22 | 50.07453 | 8.73131 | 2353 ft | 142 kts | 248° |
| 2026-04-17 06:22 | 50.07109 | 8.71688 | 2163 ft | 142 kts | 248° |
| 2026-04-17 06:23 | 50.06767 | 8.70251 | 1970 ft | 141 kts | 248° |
| 2026-04-17 06:23 | 50.06423 | 8.68811 | 1772 ft | 141 kts | 248° |
| 2026-04-17 06:23 | 50.06088 | 8.67405 | 1588 ft | 141 kts | 248° |
| 2026-04-17 06:23 | 50.05741 | 8.65953 | 1390 ft | 140 kts | 249° |
| 2026-04-17 06:24 | 50.05401 | 8.64530 | 1203 ft | 140 kts | 249° |
| 2026-04-17 06:24 | 50.05070 | 8.63099 | 994 ft | 142 kts | 250° |
| 2026-04-17 06:24 | 50.04727 | 8.61668 | 816 ft | 141 kts | 249° |
| 2026-04-17 06:24 | 50.04383 | 8.60242 | 638 ft | 141 kts | 249° |
| 2026-04-17 06:25 | 50.04042 | 8.58814 | 436 ft | 141 kts | 249° |
| 2026-04-17 06:25 | 50.03717 | 8.57446 | 367 ft | 118 kts | 249° |
| 2026-04-17 06:25 | 50.03511 | 8.56584 | 363 ft | 72 kts | 249° |
| 2026-04-17 06:25 | 50.03447 | 8.55977 | 358 ft | 38 kts | 278° |
| 2026-04-17 06:26 | 50.03474 | 8.55706 | 352 ft | 15 kts | 279° |
| 2026-04-17 06:26 | 50.03504 | 8.55543 | 355 ft | 15 kts | 311° |
| 2026-04-17 06:26 | 50.03581 | 8.55520 | 355 ft | 12 kts | 6° |